sensor_id;sensor_type;location;lat;lon;timestamp;temperature;humidity
14154;DHT22;7157;53.144;7.570;2023-06-22T00:05:03;19.61;91.27
14154;DHT22;7157;53.144;7.570;2023-06-22T00:15:06;19.42;91.75
14154;DHT22;7157;53.144;7.570;2023-06-22T00:25:11;19.45;91.69
14154;DHT22;7157;53.144;7.570;2023-06-22T00:35:14;19.42;91.87
14154;DHT22;7157;53.144;7.570;2023-06-22T00:45:18;19.24;92.05
14154;DHT22;7157;53.144;7.570;2023-06-22T00:55:22;19.00;92.59
14154;DHT22;7157;53.144;7.570;2023-06-22T01:05:26;18.94;92.52
14154;DHT22;7157;53.144;7.570;2023-06-22T01:15:36;19.00;92.34
14154;DHT22;7157;53.144;7.570;2023-06-22T01:25:47;18.85;92.88
14154;DHT22;7157;53.144;7.570;2023-06-22T01:35:52;18.66;93.05
14154;DHT22;7157;53.144;7.570;2023-06-22T01:45:56;18.53;93.53
14154;DHT22;7157;53.144;7.570;2023-06-22T01:56:00;18.50;93.62
14154;DHT22;7157;53.144;7.570;2023-06-22T02:06:06;18.41;93.96
14154;DHT22;7157;53.144;7.570;2023-06-22T02:16:12;18.33;94.21
14154;DHT22;7157;53.144;7.570;2023-06-22T02:26:16;18.27;94.15
14154;DHT22;7157;53.144;7.570;2023-06-22T02:36:21;18.08;94.40
14154;DHT22;7157;53.144;7.570;2023-06-22T02:46:24;18.07;94.34
14154;DHT22;7157;53.144;7.570;2023-06-22T02:56:28;18.14;94.19
14154;DHT22;7157;53.144;7.570;2023-06-22T03:06:32;17.87;95.17
14154;DHT22;7157;53.144;7.570;2023-06-22T03:16:36;17.68;95.43
14154;DHT22;7157;53.144;7.570;2023-06-22T03:26:39;17.59;95.23
14154;DHT22;7157;53.144;7.570;2023-06-22T03:36:43;17.63;94.90
14154;DHT22;7157;53.144;7.570;2023-06-22T03:46:47;17.77;94.64
14154;DHT22;7157;53.144;7.570;2023-06-22T03:56:51;17.78;95.32
14154;DHT22;7157;53.144;7.570;2023-06-22T04:06:53;17.95;95.15
14154;DHT22;7157;53.144;7.570;2023-06-22T04:16:58;17.97;95.12
14154;DHT22;7157;53.144;7.570;2023-06-22T04:27:01;17.99;95.46
14154;DHT22;7157;53.144;7.570;2023-06-22T04:37:05;18.12;95.10
14154;DHT22;7157;53.144;7.570;2023-06-22T04:47:08;18.11;95.30
14154;DHT22;7157;53.144;7.570;2023-06-22T04:57:13;18.36;95.01
14154;DHT22;7157;53.144;7.570;2023-06-22T05:07:16;18.64;94.53
14154;DHT22;7157;53.144;7.570;2023-06-22T05:17:20;18.72;94.26
14154;DHT22;7157;53.144;7.570;2023-06-22T05:27:22;19.03;93.69
14154;DHT22;7157;53.144;7.570;2023-06-22T05:37:28;19.35;93.30
14154;DHT22;7157;53.144;7.570;2023-06-22T05:47:31;19.68;92.41
14154;DHT22;7157;53.144;7.570;2023-06-22T05:57:35;20.21;91.31
14154;DHT22;7157;53.144;7.570;2023-06-22T06:07:38;20.55;89.88
14154;DHT22;7157;53.144;7.570;2023-06-22T06:17:49;20.78;88.03
14154;DHT22;7157;53.144;7.570;2023-06-22T06:27:52;21.13;86.55
14154;DHT22;7157;53.144;7.570;2023-06-22T06:37:57;21.23;86.18
14154;DHT22;7157;53.144;7.570;2023-06-22T06:48:00;21.57;84.97
14154;DHT22;7157;53.144;7.570;2023-06-22T06:58:04;21.91;84.81
14154;DHT22;7157;53.144;7.570;2023-06-22T07:08:09;22.27;81.21
14154;DHT22;7157;53.144;7.570;2023-06-22T07:18:13;22.73;79.12
14154;DHT22;7157;53.144;7.570;2023-06-22T07:28:16;23.25;76.02
14154;DHT22;7157;53.144;7.570;2023-06-22T07:38:20;23.74;73.74
14154;DHT22;7157;53.144;7.570;2023-06-22T07:48:23;23.61;74.53
14154;DHT22;7157;53.144;7.570;2023-06-22T07:58:27;23.69;75.44
14154;DHT22;7157;53.144;7.570;2023-06-22T08:08:29;23.69;75.62
14154;DHT22;7157;53.144;7.570;2023-06-22T08:18:34;23.98;74.67
14154;DHT22;7157;53.144;7.570;2023-06-22T08:28:36;24.12;72.15
14154;DHT22;7157;53.144;7.570;2023-06-22T08:38:41;24.45;69.71
14154;DHT22;7157;53.144;7.570;2023-06-22T08:48:43;24.84;68.72
14154;DHT22;7157;53.144;7.570;2023-06-22T08:58:47;25.15;68.22
14154;DHT22;7157;53.144;7.570;2023-06-22T09:08:50;25.50;65.76
14154;DHT22;7157;53.144;7.570;2023-06-22T09:18:54;25.88;63.82
14154;DHT22;7157;53.144;7.570;2023-06-22T09:28:57;25.69;62.06
14154;DHT22;7157;53.144;7.570;2023-06-22T09:39:01;26.18;62.56
14154;DHT22;7157;53.144;7.570;2023-06-22T09:49:07;26.58;60.41
14154;DHT22;7157;53.144;7.570;2023-06-22T09:59:11;26.99;57.64
14154;DHT22;7157;53.144;7.570;2023-06-22T10:09:19;27.24;57.46
14154;DHT22;7157;53.144;7.570;2023-06-22T10:19:24;27.38;55.38
14154;DHT22;7157;53.144;7.570;2023-06-22T10:29:26;27.57;55.25
14154;DHT22;7157;53.144;7.570;2023-06-22T10:39:31;28.08;54.20
14154;DHT22;7157;53.144;7.570;2023-06-22T10:49:33;28.08;52.69
14154;DHT22;7157;53.144;7.570;2023-06-22T10:59:39;28.38;52.72
14154;DHT22;7157;53.144;7.570;2023-06-22T11:09:42;28.87;52.29
14154;DHT22;7157;53.144;7.570;2023-06-22T11:19:47;29.45;49.98
14154;DHT22;7157;53.144;7.570;2023-06-22T11:29:49;30.60;47.86
14154;DHT22;7157;53.144;7.570;2023-06-22T11:39:55;33.85;39.59
14154;DHT22;7157;53.144;7.570;2023-06-22T11:50:08;34.53;36.24
14154;DHT22;7157;53.144;7.570;2023-06-22T12:00:14;31.02;42.05
14154;DHT22;7157;53.144;7.570;2023-06-22T12:10:19;29.12;46.92
14154;DHT22;7157;53.144;7.570;2023-06-22T12:20:24;29.53;45.82
14154;DHT22;7157;53.144;7.570;2023-06-22T12:30:26;29.88;45.25
14154;DHT22;7157;53.144;7.570;2023-06-22T12:40:31;31.57;43.44
14154;DHT22;7157;53.144;7.570;2023-06-22T12:50:34;35.28;35.54
14154;DHT22;7157;53.144;7.570;2023-06-22T13:00:39;33.75;37.85
14154;DHT22;7157;53.144;7.570;2023-06-22T13:10:41;32.42;40.49
14154;DHT22;7157;53.144;7.570;2023-06-22T13:20:46;30.99;42.97
14154;DHT22;7157;53.144;7.570;2023-06-22T13:30:48;30.48;44.82
14154;DHT22;7157;53.144;7.570;2023-06-22T13:40:52;28.77;48.30
14154;DHT22;7157;53.144;7.570;2023-06-22T13:50:57;28.21;49.98
14154;DHT22;7157;53.144;7.570;2023-06-22T14:01:01;27.99;50.99
14154;DHT22;7157;53.144;7.570;2023-06-22T14:11:04;27.50;52.59
14154;DHT22;7157;53.144;7.570;2023-06-22T14:21:08;27.39;53.26
14154;DHT22;7157;53.144;7.570;2023-06-22T14:31:11;27.23;54.94
14154;DHT22;7157;53.144;7.570;2023-06-22T14:41:15;27.21;55.34
14154;DHT22;7157;53.144;7.570;2023-06-22T14:51:19;26.92;55.35
14154;DHT22;7157;53.144;7.570;2023-06-22T15:01:23;26.70;55.29
14154;DHT22;7157;53.144;7.570;2023-06-22T15:11:26;26.43;55.05
14154;DHT22;7157;53.144;7.570;2023-06-22T15:21:30;26.31;56.19
14154;DHT22;7157;53.144;7.570;2023-06-22T15:31:33;26.30;55.71
14154;DHT22;7157;53.144;7.570;2023-06-22T15:41:39;25.64;56.07
14154;DHT22;7157;53.144;7.570;2023-06-22T15:51:43;25.40;54.61
14154;DHT22;7157;53.144;7.570;2023-06-22T16:01:47;25.07;53.68
14154;DHT22;7157;53.144;7.570;2023-06-22T16:11:50;24.78;55.23
14154;DHT22;7157;53.144;7.570;2023-06-22T16:21:54;24.60;54.83
14154;DHT22;7157;53.144;7.570;2023-06-22T16:31:57;24.38;55.42
14154;DHT22;7157;53.144;7.570;2023-06-22T16:42:01;24.06;54.86
14154;DHT22;7157;53.144;7.570;2023-06-22T16:52:05;24.04;55.26
14154;DHT22;7157;53.144;7.570;2023-06-22T17:02:12;23.83;55.60
14154;DHT22;7157;53.144;7.570;2023-06-22T17:12:18;23.58;55.73
14154;DHT22;7157;53.144;7.570;2023-06-22T17:22:22;23.05;57.49
14154;DHT22;7157;53.144;7.570;2023-06-22T17:32:29;22.82;58.20
14154;DHT22;7157;53.144;7.570;2023-06-22T17:42:33;22.44;59.45
14154;DHT22;7157;53.144;7.570;2023-06-22T17:52:36;22.27;60.28
14154;DHT22;7157;53.144;7.570;2023-06-22T18:02:41;21.93;61.47
14154;DHT22;7157;53.144;7.570;2023-06-22T18:12:45;21.79;65.12
14154;DHT22;7157;53.144;7.570;2023-06-22T18:22:52;21.08;72.32
14154;DHT22;7157;53.144;7.570;2023-06-22T18:32:56;20.41;79.19
14154;DHT22;7157;53.144;7.570;2023-06-22T18:43:01;20.05;85.18
14154;DHT22;7157;53.144;7.570;2023-06-22T18:53:04;19.79;87.44
14154;DHT22;7157;53.144;7.570;2023-06-22T19:03:08;19.62;90.30
14154;DHT22;7157;53.144;7.570;2023-06-22T19:13:19;19.13;93.17
14154;DHT22;7157;53.144;7.570;2023-06-22T19:23:24;18.72;95.52
14154;DHT22;7157;53.144;7.570;2023-06-22T19:33:28;18.51;97.55
14154;DHT22;7157;53.144;7.570;2023-06-22T19:43:32;18.52;97.78
14154;DHT22;7157;53.144;7.570;2023-06-22T19:53:41;18.58;98.23
14154;DHT22;7157;53.144;7.570;2023-06-22T20:03:47;18.23;98.62
14154;DHT22;7157;53.144;7.570;2023-06-22T20:13:52;18.09;99.98
14154;DHT22;7157;53.144;7.570;2023-06-22T20:24:02;18.13;100.03
14154;DHT22;7157;53.144;7.570;2023-06-22T20:34:05;18.23;99.40
14154;DHT22;7157;53.144;7.570;2023-06-22T20:44:09;18.32;99.04
14154;DHT22;7157;53.144;7.570;2023-06-22T20:54:12;18.48;98.76
14154;DHT22;7157;53.144;7.570;2023-06-22T21:04:21;18.52;98.71
14154;DHT22;7157;53.144;7.570;2023-06-22T21:14:24;18.62;98.24
14154;DHT22;7157;53.144;7.570;2023-06-22T21:24:28;18.56;98.71
14154;DHT22;7157;53.144;7.570;2023-06-22T21:34:31;18.44;98.90
14154;DHT22;7157;53.144;7.570;2023-06-22T21:44:35;18.44;98.83
14154;DHT22;7157;53.144;7.570;2023-06-22T21:54:38;18.33;98.75
14154;DHT22;7157;53.144;7.570;2023-06-22T22:04:42;18.46;99.13
14154;DHT22;7157;53.144;7.570;2023-06-22T22:14:45;18.58;99.28
14154;DHT22;7157;53.144;7.570;2023-06-22T22:24:49;18.56;99.27
14154;DHT22;7157;53.144;7.570;2023-06-22T22:34:52;18.42;100.17
14154;DHT22;7157;53.144;7.570;2023-06-22T22:44:56;18.33;100.73
14154;DHT22;7157;53.144;7.570;2023-06-22T22:54:59;18.40;101.32
14154;DHT22;7157;53.144;7.570;2023-06-22T23:05:03;18.37;102.01
14154;DHT22;7157;53.144;7.570;2023-06-22T23:15:07;18.25;103.37
14154;DHT22;7157;53.144;7.570;2023-06-22T23:25:12;18.20;103.36
14154;DHT22;7157;53.144;7.570;2023-06-22T23:35:15;18.13;103.58
14154;DHT22;7157;53.144;7.570;2023-06-22T23:45:20;18.05;104.03
14154;DHT22;7157;53.144;7.570;2023-06-22T23:55:23;18.02;104.23
